Time;durP1;ratioP1;P1;durP2;ratioP2;P2;SDS_P1;SDS_P2;PMS_P1;PMS_P2;Temp;Humidity;BMP_temperature;BMP_pressure;BME280_temperature;BME280_humidity;BME280_pressure;Samples;Min_cycle;Max_cycle;Signal;HPM_P1;HPM_P2
2022/03/17 00:02:14;;;;;;;25.77;18.70;;;13.00;19.70;;;;;;2612923;48;20447;-79
2022/03/17 00:04:40;;;;;;;21.97;18.20;;;12.90;20.00;;;;;;2612178;54;20423;-80
2022/03/17 00:07:06;;;;;;;26.57;19.23;;;13.00;20.40;;;;;;2613819;54;20254;-80
2022/03/17 00:09:32;;;;;;;24.30;19.80;;;12.90;19.80;;;;;;2614582;47;20167;-80
2022/03/17 00:11:58;;;;;;;24.97;19.73;;;12.90;20.10;;;;;;2614709;54;21680;-81
2022/03/17 00:14:24;;;;;;;27.20;19.87;;;12.90;20.40;;;;;;2613660;54;20419;-78
2022/03/17 00:16:50;;;;;;;24.83;18.00;;;12.80;20.10;;;;;;2614571;39;21831;-78
2022/03/17 00:19:16;;;;;;;21.87;19.10;;;12.90;20.50;;;;;;2614070;54;20415;-79
2022/03/17 00:21:42;;;;;;;22.73;18.27;;;12.90;20.80;;;;;;2614520;54;20206;-79
2022/03/17 00:24:08;;;;;;;22.83;19.00;;;;;;;;;;2613345;47;20415;-80
2022/03/17 00:26:36;;;;;;;25.13;19.50;;;12.40;20.50;;;;;;2613733;54;20394;-81
2022/03/17 00:29:05;;;;;;;23.47;19.50;;;12.90;20.70;;;;;;2614333;47;20997;-80
2022/03/17 00:31:31;;;;;;;22.60;18.80;;;12.90;21.10;;;;;;2616229;49;20426;-78
2022/03/17 00:33:57;;;;;;;26.40;19.67;;;12.90;23.10;;;;;;2614030;54;20459;-79
2022/03/17 00:36:22;;;;;;;22.87;18.97;;;12.90;22.30;;;;;;2613959;47;20185;-82
2022/03/17 00:38:49;;;;;;;25.33;19.33;;;;;;;;;;2614028;54;20154;-80
2022/03/17 00:41:15;;;;;;;23.77;20.30;;;12.90;21.40;;;;;;2614214;54;20690;-79
2022/03/17 00:43:40;;;;;;;18.60;14.10;;;12.80;21.30;;;;;;2613496;47;20531;-80
2022/03/17 00:46:06;;;;;;;28.40;20.30;;;12.80;21.30;;;;;;2614762;54;20155;-80
2022/03/17 00:48:32;;;;;;;23.00;17.83;;;12.80;21.30;;;;;;2614066;50;20206;-80
2022/03/17 00:51:00;;;;;;;26.17;19.33;;;12.80;21.10;;;;;;2615265;54;20146;-78
2022/03/17 00:53:26;;;;;;;24.40;19.77;;;13.10;23.50;;;;;;2614222;54;20159;-79
2022/03/17 00:55:51;;;;;;;26.00;18.73;;;12.80;22.10;;;;;;2614429;54;20434;-80
2022/03/17 00:58:17;;;;;;;25.30;20.10;;;12.70;21.60;;;;;;2614459;54;20419;-79
2022/03/17 01:00:43;;;;;;;25.37;19.70;;;12.90;28.80;;;;;;2614035;54;20158;-79
2022/03/17 01:03:09;;;;;;;26.83;19.13;;;12.70;21.80;;;;;;2614816;54;20165;-80
2022/03/17 01:05:36;;;;;;;25.20;18.90;;;11.10;27.90;;;;;;2614461;54;20442;-79
2022/03/17 01:08:02;;;;;;;27.77;22.30;;;12.70;22.10;;;;;;2613470;47;20151;-79
2022/03/17 01:10:28;;;;;;;23.80;20.47;;;12.70;21.80;;;;;;2611923;54;20535;-79
2022/03/17 01:12:54;;;;;;;23.83;20.50;;;12.70;22.10;;;;;;2612978;47;20567;-80
2022/03/17 01:15:20;;;;;;;24.97;20.13;;;12.70;22.70;;;;;;2613429;54;20793;-79
2022/03/17 01:17:46;;;;;;;20.37;16.53;;;12.70;23.00;;;;;;2614510;47;20170;-80
2022/03/17 01:20:12;;;;;;;23.13;19.37;;;12.60;23.10;;;;;;2614304;39;20789;-79
2022/03/17 01:22:38;;;;;;;24.37;20.47;;;12.60;23.50;;;;;;2612249;47;20411;-80
2022/03/17 01:25:05;;;;;;;21.57;16.30;;;12.60;23.00;;;;;;2614668;54;20424;-81
2022/03/17 01:27:34;;;;;;;28.13;19.40;;;12.60;22.80;;;;;;2614946;39;20806;-79
2022/03/17 01:30:01;;;;;;;27.67;18.63;;;12.70;22.60;;;;;;2614306;54;20412;-79
2022/03/17 01:32:26;;;;;;;22.53;19.80;;;12.60;23.00;;;;;;2613207;47;20451;-80
2022/03/17 01:34:52;;;;;;;26.03;21.57;;;12.60;22.90;;;;;;2614926;54;20919;-79
2022/03/17 01:37:18;;;;;;;28.17;19.27;;;12.70;23.30;;;;;;2613639;54;20151;-79
2022/03/17 01:39:44;;;;;;;22.90;18.30;;;12.60;23.30;;;;;;2614759;39;20806;-79
2022/03/17 01:42:11;;;;;;;27.23;21.40;;;12.70;22.70;;;;;;2613265;54;20158;-80
2022/03/17 01:44:38;;;;;;;26.17;20.50;;;12.70;22.90;;;;;;2614892;54;20442;-78
2022/03/17 01:49:49;;;;;;;27.90;21.60;;;12.60;23.60;;;;;;2614328;46;20435;-79
2022/03/17 01:52:16;;;;;;;24.47;19.20;;;12.60;23.50;;;;;;2615437;54;20416;-79
2022/03/17 01:54:42;;;;;;;26.10;18.43;;;12.60;23.50;;;;;;2614592;54;20978;-79
2022/03/17 01:57:09;;;;;;;26.83;20.23;;;12.60;23.60;;;;;;2613229;54;20399;-80
2022/03/17 01:59:36;;;;;;;31.13;21.23;;;12.60;23.80;;;;;;2614554;47;20515;-79
2022/03/17 02:02:10;;;;;;;24.43;20.30;;;12.60;23.50;;;;;;2614517;47;20423;-80
2022/03/17 02:04:40;;;;;;;26.50;20.13;;;12.60;23.70;;;;;;2614855;54;21007;-80
2022/03/17 02:07:07;;;;;;;26.40;20.63;;;12.50;24.00;;;;;;2613648;54;20736;-79
2022/03/17 02:09:36;;;;;;;27.00;20.30;;;12.60;24.20;;;;;;2613726;47;20523;-80
2022/03/17 02:14:53;;;;;;;26.10;19.23;;;12.50;24.40;;;;;;2614581;54;20936;-79
2022/03/17 02:17:20;;;;;;;23.50;19.30;;;12.60;24.10;;;;;;2612719;47;20412;-80
2022/03/17 02:19:47;;;;;;;25.97;18.80;;;12.50;24.30;;;;;;2613342;51;20443;-80
2022/03/17 02:22:15;;;;;;;26.53;21.67;;;12.60;24.40;;;;;;2614200;54;20959;-81
2022/03/17 02:27:35;;;;;;;26.23;19.93;;;12.60;23.90;;;;;;2615017;54;20433;-80
2022/03/17 02:30:03;;;;;;;25.13;20.30;;;12.60;23.90;;;;;;2613504;47;20408;-80
2022/03/17 02:32:29;;;;;;;26.40;21.40;;;12.50;24.20;;;;;;2613699;54;20436;-80
2022/03/17 02:34:56;;;;;;;25.57;19.20;;;12.50;24.50;;;;;;2614259;46;20490;-81
2022/03/17 02:37:24;;;;;;;26.50;21.57;;;12.40;30.00;;;;;;2613739;54;20418;-82
2022/03/17 02:39:50;;;;;;;24.97;21.00;;;12.50;26.10;;;;;;2614015;54;20623;-80
2022/03/17 02:42:16;;;;;;;32.13;22.27;;;12.50;25.80;;;;;;2613881;54;20503;-81
2022/03/17 02:44:42;;;;;;;26.73;21.50;;;12.50;25.80;;;;;;2614410;47;20430;-79
2022/03/17 02:47:09;;;;;;;26.80;21.23;;;;;;;;;;2613689;54;20585;-79
2022/03/17 02:49:34;;;;;;;28.77;22.30;;;12.40;26.50;;;;;;2612569;54;20384;-80
2022/03/17 02:52:01;;;;;;;33.17;21.50;;;;;;;;;;2615322;54;21264;-80
2022/03/17 02:54:27;;;;;;;27.40;22.93;;;12.40;26.80;;;;;;2614573;51;20535;-79
2022/03/17 02:56:53;;;;;;;28.77;21.90;;;13.20;36.00;;;;;;2614444;47;20960;-78
2022/03/17 02:59:18;;;;;;;26.07;22.63;;;12.40;26.50;;;;;;2613907;47;20182;-80
2022/03/17 03:01:45;;;;;;;26.40;20.17;;;;;;;;;;2613920;47;20702;-80
2022/03/17 03:04:13;;;;;;;30.87;21.40;;;12.10;30.70;;;;;;2614208;54;20161;-79
2022/03/17 03:06:39;;;;;;;27.87;21.20;;;12.30;30.00;;;;;;2614841;54;20384;-80
2022/03/17 03:09:05;;;;;;;24.67;20.17;;;12.40;27.20;;;;;;2614758;54;20450;-80
2022/03/17 03:11:31;;;;;;;28.47;20.30;;;12.40;27.60;;;;;;2614285;39;20867;-80
2022/03/17 03:13:58;;;;;;;29.13;21.33;;;12.10;31.90;;;;;;2614283;54;20466;-79
2022/03/17 03:16:25;;;;;;;31.37;22.73;;;12.50;28.10;;;;;;2614165;47;20966;-79
2022/03/17 03:18:50;;;;;;;25.23;20.07;;;12.90;32.90;;;;;;2613992;54;20420;-80
2022/03/17 03:21:17;;;;;;;31.67;21.70;;;12.30;27.80;;;;;;2614575;47;20503;-80
2022/03/17 03:23:45;;;;;;;30.50;22.80;;;12.30;32.80;;;;;;2613053;47;20222;-79
2022/03/17 03:26:11;;;;;;;25.07;20.10;;;12.30;29.00;;;;;;2614618;47;20461;-80
2022/03/17 03:28:38;;;;;;;26.37;20.67;;;12.40;29.10;;;;;;2614916;54;20487;-80
2022/03/17 03:31:06;;;;;;;31.03;20.33;;;12.30;29.60;;;;;;2615138;47;20154;-80
2022/03/17 03:33:32;;;;;;;24.73;21.13;;;12.40;28.80;;;;;;2614590;39;20901;-80
2022/03/17 03:38:43;;;;;;;30.40;21.83;;;12.30;36.10;;;;;;2613883;54;20170;-79
2022/03/17 03:41:09;;;;;;;25.43;20.73;;;12.00;48.30;;;;;;2612755;54;20399;-79
2022/03/17 03:43:35;;;;;;;27.30;20.37;;;;;;;;;;2613213;54;20230;-80
2022/03/17 03:46:01;;;;;;;25.37;20.67;;;13.00;30.00;;;;;;2613921;54;20995;-79
2022/03/17 03:48:27;;;;;;;28.43;20.80;;;12.10;53.70;;;;;;2613601;46;20428;-79
2022/03/17 03:50:52;;;;;;;28.80;22.17;;;12.30;30.00;;;;;;2613812;54;20419;-79
2022/03/17 03:53:18;;;;;;;29.93;21.80;;;12.30;30.50;;;;;;2614237;47;20179;-79
2022/03/17 03:55:44;;;;;;;28.93;22.10;;;12.40;31.30;;;;;;2613234;54;20515;-80
2022/03/17 03:58:11;;;;;;;34.30;23.17;;;12.50;30.30;;;;;;2613634;54;20178;-79
2022/03/17 04:00:37;;;;;;;29.47;22.00;;;12.30;31.20;;;;;;2614732;54;20159;-79
2022/03/17 04:03:03;;;;;;;27.83;22.00;;;12.40;30.90;;;;;;2613613;54;20411;-79
2022/03/17 04:05:32;;;;;;;27.80;20.47;;;12.40;31.70;;;;;;2611811;54;20155;-79
2022/03/17 04:07:58;;;;;;;36.47;23.27;;;12.50;31.00;;;;;;2612736;46;20450;-80
2022/03/17 04:10:25;;;;;;;29.90;23.87;;;12.60;34.00;;;;;;2613068;47;20410;-79
2022/03/17 04:12:51;;;;;;;29.73;23.90;;;12.50;31.30;;;;;;2614986;54;20179;-78
2022/03/17 04:15:17;;;;;;;27.37;21.30;;;12.30;32.10;;;;;;2614625;54;20415;-80
2022/03/17 04:17:43;;;;;;;27.27;22.30;;;12.50;33.10;;;;;;2614361;54;20427;-79
2022/03/17 04:20:09;;;;;;;27.90;22.10;;;12.40;33.70;;;;;;2614058;47;20423;-79
2022/03/17 04:22:35;;;;;;;30.03;21.30;;;12.40;34.60;;;;;;2614921;54;20175;-81
2022/03/17 04:25:01;;;;;;;34.40;23.20;;;12.40;36.50;;;;;;2614541;51;20430;-79
2022/03/17 04:27:27;;;;;;;27.57;22.13;;;12.40;36.80;;;;;;2614485;47;20462;-79
2022/03/17 04:29:54;;;;;;;30.47;23.13;;;12.40;37.70;;;;;;2613472;54;20527;-79
2022/03/17 04:32:20;;;;;;;29.43;22.53;;;12.40;38.60;;;;;;2614384;47;20201;-79
2022/03/17 04:34:46;;;;;;;30.40;23.07;;;12.40;39.70;;;;;;2614324;47;20411;-80
2022/03/17 04:37:12;;;;;;;26.47;19.93;;;12.40;43.70;;;;;;2612931;54;20408;-80
2022/03/17 04:39:38;;;;;;;37.17;22.83;;;;;;;;;;2613862;54;20965;-79
2022/03/17 04:42:04;;;;;;;30.50;22.50;;;13.00;50.00;;;;;;2614393;54;20170;-80
2022/03/17 04:44:30;;;;;;;30.33;21.87;;;12.30;46.80;;;;;;2614500;54;20399;-80
2022/03/17 04:46:57;;;;;;;33.93;22.27;;;13.20;48.30;;;;;;2614490;54;20419;-80
2022/03/17 04:49:23;;;;;;;29.73;22.70;;;12.10;50.80;;;;;;2614480;54;20238;-80
2022/03/17 04:51:49;;;;;;;38.30;25.23;;;12.20;48.20;;;;;;2615259;54;20426;-79
2022/03/17 04:54:15;;;;;;;33.80;24.00;;;12.20;51.60;;;;;;2613663;54;20541;-79
2022/03/17 04:56:41;;;;;;;29.57;22.80;;;12.10;54.50;;;;;;2613877;54;21025;-79
2022/03/17 04:59:06;;;;;;;30.60;22.00;;;12.40;61.00;;;;;;2614393;54;20423;-79
2022/03/17 05:01:33;;;;;;;33.03;21.93;;;;;;;;;;2615339;54;20202;-80
2022/03/17 05:03:58;;;;;;;28.67;22.80;;;12.10;59.40;;;;;;2614030;47;20159;-79
2022/03/17 05:06:24;;;;;;;30.37;23.80;;;12.10;64.60;;;;;;2614966;54;20404;-79
2022/03/17 05:08:50;;;;;;;29.43;22.87;;;12.70;82.90;;;;;;2613732;54;20723;-79
2022/03/17 05:11:16;;;;;;;32.37;24.37;;;12.10;84.40;;;;;;2613648;46;20426;-78
2022/03/17 05:13:43;;;;;;;38.07;24.43;;;11.90;99.90;;;;;;2613610;54;20153;-79
2022/03/17 05:16:09;;;;;;;34.90;24.67;;;12.10;99.90;;;;;;2614462;54;20437;-79
2022/03/17 05:18:36;;;;;;;38.07;25.93;;;11.60;99.90;;;;;;2614200;51;20431;-79
2022/03/17 05:21:02;;;;;;;33.60;24.50;;;11.60;99.90;;;;;;2614409;54;20470;-80
2022/03/17 05:23:30;;;;;;;42.63;25.77;;;11.80;99.90;;;;;;2614786;54;20530;-80
2022/03/17 05:25:58;;;;;;;41.17;28.33;;;11.50;99.90;;;;;;2613544;46;20499;-81
2022/03/17 05:28:23;;;;;;;32.63;21.57;;;11.30;99.90;;;;;;2616186;39;20758;-81
2022/03/17 05:30:49;;;;;;;43.27;27.43;;;11.30;99.90;;;;;;2614212;39;20505;-80
2022/03/17 05:33:16;;;;;;;37.97;27.90;;;;;;;;;;2614292;39;21015;-79
2022/03/17 05:35:43;;;;;;;36.30;27.00;;;11.00;99.90;;;;;;2614054;54;20418;-80
2022/03/17 05:38:10;;;;;;;39.90;29.23;;;11.00;99.90;;;;;;2614003;39;20805;-81
2022/03/17 05:40:36;;;;;;;43.47;29.30;;;10.50;99.90;;;;;;2613470;54;21218;-80
2022/03/17 05:43:08;;;;;;;43.80;32.43;;;11.00;99.90;;;;;;2613664;54;20444;-79
2022/03/17 05:45:35;;;;;;;49.83;30.33;;;10.20;99.90;;;;;;2614822;46;20410;-81
2022/03/17 05:48:03;;;;;;;42.00;29.67;;;10.90;99.90;;;;;;2614541;54;20443;-80
2022/03/17 05:50:32;;;;;;;45.63;29.97;;;10.40;99.90;;;;;;2612966;47;20426;-80
2022/03/17 05:52:58;;;;;;;44.80;29.87;;;10.40;99.90;;;;;;2614437;51;20402;-80
2022/03/17 05:55:26;;;;;;;47.13;33.13;;;11.10;99.90;;;;;;2614551;54;20935;-81
2022/03/17 05:57:54;;;;;;;50.17;33.30;;;10.20;99.90;;;;;;2612852;47;20431;-81
2022/03/17 06:00:23;;;;;;;45.37;30.10;;;9.80;99.90;;;;;;2612429;47;20408;-80
2022/03/17 06:02:50;;;;;;;49.07;34.77;;;10.10;99.90;;;;;;2614311;54;20407;-81
2022/03/17 06:05:16;;;;;;;50.23;32.67;;;10.00;99.90;;;;;;2613342;54;21261;-79
2022/03/17 06:07:42;;;;;;;49.10;32.23;;;10.00;99.90;;;;;;2614194;54;20399;-80
2022/03/17 06:10:16;;;;;;;48.97;31.27;;;9.30;99.90;;;;;;2613760;51;20271;-80
2022/03/17 06:12:45;;;;;;;56.43;35.23;;;10.00;99.90;;;;;;2612594;54;20925;-80
2022/03/17 06:15:12;;;;;;;45.33;29.53;;;;;;;;;;2612935;54;20417;-80
2022/03/17 06:17:43;;;;;;;51.90;35.30;;;10.00;99.90;;;;;;2614199;54;20434;-80
2022/03/17 06:20:15;;;;;;;54.30;34.77;;;10.00;99.90;;;;;;2613848;50;20448;-81
2022/03/17 06:22:43;;;;;;;56.60;29.77;;;10.60;99.90;;;;;;2611835;54;20409;-83
2022/03/17 06:25:13;;;;;;;54.57;34.27;;;9.90;99.90;;;;;;2611471;47;20461;-84
2022/03/17 06:27:39;;;;;;;60.07;39.50;;;9.90;99.90;;;;;;2612919;46;21013;-82
2022/03/17 06:30:07;;;;;;;61.50;37.63;;;9.90;99.90;;;;;;2611474;54;20414;-82
2022/03/17 06:32:39;;;;;;;57.27;36.53;;;9.90;99.90;;;;;;2610469;54;20454;-83
2022/03/17 06:35:17;;;;;;;62.73;38.40;;;9.80;99.90;;;;;;2613594;47;20425;-83
2022/03/17 06:37:49;;;;;;;30.07;20.37;;;9.90;99.90;;;;;;2612508;54;20400;-83
2022/03/17 06:40:16;;;;;;;38.87;25.30;;;10.00;99.90;;;;;;2644730;36;20533;-85
2022/03/17 06:42:43;;;;;;;45.93;29.00;;;9.90;99.90;;;;;;2616741;47;20412;-86
2022/03/17 06:45:09;;;;;;;23.93;18.73;;;9.90;99.90;;;;;;2612504;51;20431;-85
2022/03/17 06:47:35;;;;;;;31.57;21.90;;;9.80;99.90;;;;;;2612139;47;20419;-83
2022/03/17 06:50:01;;;;;;;33.70;20.80;;;9.80;99.90;;;;;;2612898;54;20391;-82
2022/03/17 06:52:27;;;;;;;38.20;20.93;;;9.60;99.90;;;;;;2615442;54;20439;-85
2022/03/17 06:54:53;;;;;;;30.77;20.67;;;9.50;99.90;;;;;;2613788;54;20144;-84
2022/03/17 06:57:21;;;;;;;29.83;19.50;;;9.40;99.90;;;;;;2614564;54;20986;-84
2022/03/17 06:59:48;;;;;;;33.90;20.33;;;9.10;99.90;;;;;;2614065;39;20569;-85
2022/03/17 07:02:16;;;;;;;32.33;18.43;;;9.30;99.90;;;;;;2614911;54;20937;-85
2022/03/17 07:04:42;;;;;;;31.77;19.97;;;9.30;99.90;;;;;;2615911;31;20840;-82
2022/03/17 07:07:09;;;;;;;33.40;20.00;;;;;;;;;;2611357;39;21412;-82
2022/03/17 07:09:36;;;;;;;38.53;23.10;;;9.20;99.90;;;;;;2611832;54;20515;-85
2022/03/17 07:12:02;;;;;;;32.03;21.10;;;9.20;99.90;;;;;;2611764;54;20483;-81
2022/03/17 07:14:28;;;;;;;35.43;19.67;;;9.20;99.90;;;;;;2611822;54;20430;-84
2022/03/17 07:16:54;;;;;;;29.80;19.50;;;9.30;99.90;;;;;;2612342;47;20517;-82
2022/03/17 07:19:20;;;;;;;32.30;21.40;;;9.30;99.90;;;;;;2610564;47;20451;-81
2022/03/17 07:21:47;;;;;;;28.27;18.80;;;9.30;99.90;;;;;;2611714;54;20448;-84
2022/03/17 07:24:12;;;;;;;29.43;17.47;;;9.30;99.90;;;;;;2611274;46;20436;-82
2022/03/17 07:26:40;;;;;;;29.27;16.93;;;9.20;99.90;;;;;;2612057;54;20422;-83
2022/03/17 07:29:06;;;;;;;28.53;17.80;;;9.10;99.90;;;;;;2611229;47;20987;-82
2022/03/17 07:31:33;;;;;;;24.00;13.43;;;9.10;99.90;;;;;;2611718;54;20409;-83
2022/03/17 07:33:59;;;;;;;29.00;17.90;;;9.00;99.90;;;;;;2610877;54;20483;-83
2022/03/17 07:36:26;;;;;;;22.73;16.23;;;8.90;99.90;;;;;;2612192;31;21041;-84
2022/03/17 07:38:56;;;;;;;18.93;13.83;;;8.90;99.90;;;;;;2646998;36;21626;-85
2022/03/17 07:41:23;;;;;;;25.13;17.27;;;8.90;99.90;;;;;;2612128;54;20419;-83
2022/03/17 07:43:49;;;;;;;27.40;16.50;;;8.80;99.90;;;;;;2611783;54;20421;-84
2022/03/17 07:46:34;;;;;;;23.37;16.50;;;8.80;99.90;;;;;;2611916;54;20529;-82
2022/03/17 07:49:09;;;;;;;22.33;15.57;;;8.70;99.90;;;;;;2611778;39;20780;-81
2022/03/17 07:51:39;;;;;;;20.23;15.30;;;8.70;99.90;;;;;;2610669;54;20379;-83
2022/03/17 07:54:05;;;;;;;27.73;16.67;;;8.60;99.90;;;;;;2611661;54;20426;-84
2022/03/17 07:56:31;;;;;;;21.33;15.03;;;8.60;99.90;;;;;;2610826;46;20428;-80
2022/03/17 07:58:57;;;;;;;20.23;14.23;;;8.60;99.90;;;;;;2611335;31;20897;-81
2022/03/17 08:01:25;;;;;;;20.67;13.93;;;8.60;99.90;;;;;;2610671;47;20412;-83
2022/03/17 08:03:54;;;;;;;23.97;12.40;;;8.60;99.90;;;;;;2611368;54;20388;-84
2022/03/17 08:06:25;;;;;;;20.03;11.07;;;8.50;99.90;;;;;;2611398;54;20493;-84
2022/03/17 08:08:52;;;;;;;20.40;15.20;;;8.50;99.90;;;;;;2610349;54;20416;-81
2022/03/17 08:11:18;;;;;;;22.83;13.33;;;8.60;99.90;;;;;;2611555;46;20454;-82
2022/03/17 08:13:44;;;;;;;23.47;13.80;;;8.60;99.90;;;;;;2611990;54;20439;-82
2022/03/17 08:16:12;;;;;;;18.00;12.00;;;8.60;99.90;;;;;;2612209;54;20474;-82
2022/03/17 08:18:38;;;;;;;16.33;9.70;;;8.80;99.90;;;;;;2612856;54;20425;-83
2022/03/17 08:21:04;;;;;;;9.47;7.13;;;8.80;99.90;;;;;;2612727;39;20817;-82
2022/03/17 08:23:30;;;;;;;15.07;8.40;;;8.80;99.90;;;;;;2611830;54;20404;-81
2022/03/17 08:25:56;;;;;;;11.93;7.80;;;8.70;99.90;;;;;;2610620;47;20432;-82
2022/03/17 08:28:24;;;;;;;9.47;6.70;;;9.00;99.90;;;;;;2611088;54;20428;-82
2022/03/17 08:30:51;;;;;;;5.60;4.80;;;8.90;99.90;;;;;;2611555;54;20433;-83
2022/03/17 08:33:18;;;;;;;9.07;5.50;;;8.90;99.90;;;;;;2611972;54;20461;-82
2022/03/17 08:35:45;;;;;;;7.40;5.03;;;8.80;99.90;;;;;;2613787;39;21693;-83
2022/03/17 08:38:11;;;;;;;7.30;5.20;;;8.80;99.90;;;;;;2611990;39;20833;-81
2022/03/17 08:40:39;;;;;;;5.67;5.00;;;8.70;99.90;;;;;;2611078;54;20428;-80
2022/03/17 08:43:08;;;;;;;9.93;5.40;;;8.70;99.90;;;;;;2609796;47;20436;-77
2022/03/17 08:51:03;;;;;;;9.30;4.50;;;9.00;99.90;;;;;;2611715;51;20421;-81
2022/03/17 08:53:29;;;;;;;8.10;4.00;;;8.80;99.90;;;;;;2611188;47;20399;-81
2022/03/17 08:55:56;;;;;;;11.53;4.37;;;;;;;;;;2610338;54;20404;-79
2022/03/17 08:58:23;;;;;;;5.23;4.33;;;8.80;99.90;;;;;;2610029;47;20518;-80
2022/03/17 09:00:49;;;;;;;7.80;4.57;;;8.90;99.90;;;;;;2610896;47;20426;-80
2022/03/17 09:03:16;;;;;;;6.33;4.07;;;8.80;99.90;;;;;;2611711;39;20808;-80
2022/03/17 09:05:42;;;;;;;4.57;3.50;;;;;;;;;;2612479;47;20464;-79
2022/03/17 09:08:08;;;;;;;4.13;3.60;;;8.90;99.90;;;;;;2611301;54;20410;-80
2022/03/17 09:10:35;;;;;;;6.40;3.87;;;9.00;99.90;;;;;;2611947;49;20414;-80
2022/03/17 09:13:09;;;;;;;5.37;3.30;;;9.00;99.90;;;;;;2610528;54;20412;-79
2022/03/17 09:15:40;;;;;;;4.80;4.30;;;9.10;99.90;;;;;;2611015;54;20425;-81
2022/03/17 09:18:09;;;;;;;14.43;4.27;;;9.20;99.90;;;;;;2611690;54;20426;-79
2022/03/17 09:20:37;;;;;;;6.87;4.20;;;9.20;99.90;;;;;;2612579;54;20442;-79
2022/03/17 09:23:03;;;;;;;6.70;3.90;;;9.40;99.90;;;;;;2612351;54;20401;-81
2022/03/17 09:25:31;;;;;;;5.10;4.37;;;9.40;99.90;;;;;;2611906;54;21370;-80
2022/03/17 09:27:57;;;;;;;6.07;4.23;;;9.50;99.90;;;;;;2611180;39;20787;-80
2022/03/17 09:30:23;;;;;;;7.10;4.20;;;9.40;99.90;;;;;;2611847;47;21051;-80
2022/03/17 09:32:52;;;;;;;6.93;4.13;;;9.40;99.90;;;;;;2611293;54;21001;-80
2022/03/17 09:35:18;;;;;;;4.20;3.47;;;9.10;99.90;;;;;;2611021;54;20470;-79
2022/03/17 09:37:45;;;;;;;8.00;5.23;;;9.30;99.90;;;;;;2612651;39;20809;-79
2022/03/17 09:40:12;;;;;;;6.60;4.97;;;9.20;99.90;;;;;;2611180;54;20422;-79
2022/03/17 09:42:38;;;;;;;9.33;5.47;;;9.10;99.90;;;;;;2611013;48;20446;-79
2022/03/17 09:45:07;;;;;;;10.07;5.27;;;9.20;99.90;;;;;;2611621;54;20459;-79
2022/03/17 09:47:36;;;;;;;10.80;6.07;;;9.30;99.90;;;;;;2611085;54;20399;-79
2022/03/17 09:50:03;;;;;;;38.10;10.37;;;9.40;99.90;;;;;;2612723;47;20418;-80
2022/03/17 09:52:31;;;;;;;12.23;7.10;;;9.40;99.90;;;;;;2611297;39;20800;-79
2022/03/17 09:54:58;;;;;;;6.70;4.97;;;9.30;99.90;;;;;;2610549;49;20418;-79
2022/03/17 09:57:25;;;;;;;6.70;5.33;;;9.40;99.90;;;;;;2628988;36;20482;-78
2022/03/17 09:59:53;;;;;;;10.17;5.93;;;9.40;99.90;;;;;;2610655;54;20406;-80
2022/03/17 10:02:20;;;;;;;11.20;5.87;;;9.50;99.90;;;;;;2610233;54;20298;-80
2022/03/17 10:04:48;;;;;;;5.43;4.30;;;9.50;99.90;;;;;;2611453;47;20528;-80
2022/03/17 10:07:18;;;;;;;7.93;5.47;;;9.50;99.90;;;;;;2611913;54;20411;-79
2022/03/17 10:09:45;;;;;;;12.53;5.27;;;9.30;99.90;;;;;;2612335;54;20412;-79
2022/03/17 10:12:13;;;;;;;9.57;4.87;;;9.50;99.90;;;;;;2612743;46;20434;-80
2022/03/17 10:14:44;;;;;;;8.33;4.73;;;9.40;99.90;;;;;;2613205;39;20849;-79
2022/03/17 10:17:36;;;;;;;8.33;5.90;;;9.20;99.90;;;;;;2613080;39;20790;-80
2022/03/17 10:20:22;;;;;;;13.33;5.13;;;9.20;99.90;;;;;;2613125;54;20381;-81
2022/03/17 10:22:52;;;;;;;5.80;3.80;;;9.30;99.90;;;;;;2612635;54;20430;-80
2022/03/17 10:25:19;;;;;;;4.57;3.37;;;9.30;99.90;;;;;;2612540;54;20513;-80
2022/03/17 10:27:46;;;;;;;5.47;3.37;;;9.50;99.90;;;;;;2612432;54;20445;-78
2022/03/17 10:30:34;;;;;;;4.80;3.90;;;9.30;99.90;;;;;;2612351;39;20835;-78
2022/03/17 10:33:11;;;;;;;10.83;4.70;;;9.70;99.90;;;;;;2611873;39;20856;-79
2022/03/17 10:35:38;;;;;;;7.00;4.40;;;9.90;99.90;;;;;;2611073;52;20405;-80
2022/03/17 10:38:12;;;;;;;7.30;4.50;;;9.80;99.90;;;;;;2612716;54;20403;-80
2022/03/17 10:40:39;;;;;;;6.00;3.53;;;10.00;99.90;;;;;;2611653;47;20522;-80
2022/03/17 10:43:24;;;;;;;7.20;3.37;;;10.40;99.90;;;;;;2611267;47;22044;-81
2022/03/17 10:46:19;;;;;;;8.63;4.00;;;10.10;99.90;;;;;;2612243;54;20446;-79
2022/03/17 10:49:02;;;;;;;11.30;5.00;;;9.80;99.90;;;;;;2612838;54;20423;-80
2022/03/17 10:51:41;;;;;;;6.33;3.90;;;9.90;99.90;;;;;;2611968;47;20422;-80
2022/03/17 10:54:11;;;;;;;7.80;3.43;;;10.00;99.90;;;;;;2612818;54;20482;-78
2022/03/17 10:56:40;;;;;;;9.00;3.33;;;10.00;99.90;;;;;;2612668;54;20509;-78
2022/03/17 10:59:10;;;;;;;4.10;2.87;;;10.30;99.90;;;;;;2612788;47;20494;-79
2022/03/17 11:01:38;;;;;;;3.87;2.77;;;10.10;99.90;;;;;;2613333;39;20870;-80
2022/03/17 11:04:06;;;;;;;4.20;2.33;;;10.10;99.90;;;;;;2613462;54;20417;-80
2022/03/17 11:06:33;;;;;;;5.80;2.50;;;10.10;99.90;;;;;;2613603;54;20947;-79
2022/03/17 11:09:01;;;;;;;6.37;3.77;;;10.00;99.90;;;;;;2612920;54;20411;-80
2022/03/17 11:11:28;;;;;;;7.80;2.87;;;9.90;99.90;;;;;;2612977;54;20537;-80
2022/03/17 11:13:56;;;;;;;2.83;2.37;;;9.90;99.90;;;;;;2614483;39;20822;-81
2022/03/17 11:16:30;;;;;;;12.53;3.03;;;10.10;99.90;;;;;;2613192;54;20410;-79
2022/03/17 11:18:57;;;;;;;6.40;2.67;;;10.10;99.90;;;;;;2613768;54;20985;-79
2022/03/17 11:21:28;;;;;;;5.83;3.00;;;10.20;99.90;;;;;;2614112;54;20423;-81
2022/03/17 11:24:06;;;;;;;8.00;2.00;;;10.20;99.90;;;;;;2614894;39;20473;-81
2022/03/17 11:26:36;;;;;;;2.97;1.90;;;10.20;99.90;;;;;;2613272;54;20393;-81
2022/03/17 11:29:10;;;;;;;7.03;2.50;;;10.30;99.90;;;;;;2614172;54;20416;-80
2022/03/17 11:31:57;;;;;;;5.73;3.07;;;10.30;99.90;;;;;;2615237;54;20433;-79
2022/03/17 11:34:38;;;;;;;7.07;2.97;;;10.40;99.90;;;;;;2612836;47;20541;-80
2022/03/17 11:37:19;;;;;;;3.50;2.50;;;10.30;99.90;;;;;;2612171;47;20430;-80
2022/03/17 11:39:55;;;;;;;12.03;3.80;;;10.40;99.90;;;;;;2611898;54;20430;-80
2022/03/17 11:42:42;;;;;;;5.40;2.20;;;10.60;99.90;;;;;;2612810;54;20950;-80
2022/03/17 11:45:12;;;;;;;9.60;4.00;;;10.70;99.90;;;;;;2612690;46;22152;-80
2022/03/17 11:47:44;;;;;;;8.07;4.93;;;10.80;99.90;;;;;;2612312;54;20426;-80
2022/03/17 11:50:23;;;;;;;8.23;3.67;;;10.80;99.90;;;;;;2612029;54;20427;-80
2022/03/17 11:53:03;;;;;;;5.33;2.37;;;10.70;99.90;;;;;;2611751;54;20991;-79
2022/03/17 11:55:41;;;;;;;5.53;2.07;;;10.80;99.90;;;;;;2611982;54;20550;-79
2022/03/17 11:58:33;;;;;;;7.27;3.17;;;11.00;99.90;;;;;;2611691;54;20399;-79
2022/03/17 12:01:25;;;;;;;6.30;2.87;;;11.20;99.90;;;;;;2611700;51;20433;-80
2022/03/17 12:04:01;;;;;;;3.37;2.60;;;11.80;99.90;;;;;;2612430;54;20415;-80
2022/03/17 12:06:31;;;;;;;3.43;2.30;;;12.10;99.90;;;;;;2610766;47;20425;-79
2022/03/17 12:09:11;;;;;;;3.80;1.93;;;12.20;99.90;;;;;;2610940;31;21014;-80
2022/03/17 12:11:46;;;;;;;10.67;2.27;;;12.20;94.20;;;;;;2611534;54;20404;-78
2022/03/17 12:14:18;;;;;;;4.70;2.50;;;12.00;89.00;;;;;;2611324;48;21368;-81
2022/03/17 12:16:56;;;;;;;4.60;2.30;;;12.00;92.90;;;;;;2610412;47;20454;-80
2022/03/17 12:19:28;;;;;;;7.53;2.63;;;12.20;77.00;;;;;;2612288;39;20498;-80
2022/03/17 12:21:57;;;;;;;11.13;3.70;;;12.30;71.00;;;;;;2612556;54;20415;-79
2022/03/17 12:24:47;;;;;;;4.50;2.43;;;12.60;53.40;;;;;;2612102;53;20428;-79
2022/03/17 12:27:34;;;;;;;5.20;2.20;;;12.40;47.60;;;;;;2611072;47;20432;-80
2022/03/17 12:30:12;;;;;;;9.23;2.70;;;12.40;50.30;;;;;;2610834;54;20412;-81
2022/03/17 12:32:51;;;;;;;4.80;2.57;;;12.50;48.90;;;;;;2611146;54;20434;-79
2022/03/17 12:35:24;;;;;;;7.00;4.27;;;12.40;50.00;;;;;;2611728;47;20415;-82
2022/03/17 12:37:57;;;;;;;5.17;2.73;;;12.10;48.70;;;;;;2612516;47;20531;-80
2022/03/17 12:40:22;;;;;;;14.17;2.73;;;11.10;49.60;;;;;;2612114;54;20506;-81
2022/03/17 12:42:51;;;;;;;4.93;2.67;;;12.00;52.90;;;;;;2611328;47;20423;-80
2022/03/17 12:45:24;;;;;;;6.93;2.67;;;11.80;51.80;;;;;;2610392;47;20176;-80
2022/03/17 12:47:56;;;;;;;10.90;2.70;;;11.80;53.30;;;;;;2611384;47;20455;-81
2022/03/17 12:50:23;;;;;;;6.97;2.27;;;11.60;55.30;;;;;;2610413;54;20620;-80
2022/03/17 12:52:50;;;;;;;5.10;2.30;;;11.50;56.20;;;;;;2611463;47;20571;-81
2022/03/17 12:55:19;;;;;;;12.60;3.60;;;11.40;55.40;;;;;;2611202;54;20411;-80
2022/03/17 12:57:47;;;;;;;7.20;3.53;;;11.30;62.40;;;;;;2611041;46;20451;-81
2022/03/17 13:00:15;;;;;;;5.53;3.30;;;11.30;61.60;;;;;;2611031;54;20510;-81
2022/03/17 13:02:50;;;;;;;6.20;2.83;;;11.20;57.20;;;;;;2610787;46;20447;-81
2022/03/17 13:08:07;;;;;;;6.97;2.83;;;11.10;60.20;;;;;;2611476;47;20411;-80